createdAt,value
2023-02-16T00:00:40.419Z,101842.78
2023-02-16T00:05:43.716Z,101847.03
2023-02-16T00:11:07.135Z,101856.34
2023-02-16T00:16:14.825Z,101845.59
2023-02-16T00:21:18.661Z,101836.03
2023-02-16T00:26:23.845Z,101835.56
2023-02-16T00:31:32.793Z,101833.63
2023-02-16T00:36:35.701Z,101829.59
2023-02-16T00:41:53.942Z,101830.84
2023-02-16T00:46:58.412Z,101822.41
2023-02-16T00:52:01.223Z,101823.34
2023-02-16T00:57:04.177Z,101813.72
2023-02-16T01:02:08.472Z,101820.13
2023-02-16T01:07:30.568Z,101818.31
2023-02-16T01:12:33.355Z,101810.69
2023-02-16T01:17:37.578Z,101807.13
2023-02-16T01:22:40.414Z,101813.31
2023-02-16T01:27:44.422Z,101793.41
2023-02-16T01:32:52.350Z,101798.75
2023-02-16T01:37:55.468Z,101798.94
2023-02-16T01:43:05.422Z,101785.91
2023-02-16T01:48:21.943Z,101787.09
2023-02-16T01:53:30.403Z,101791.63
2023-02-16T01:58:40.873Z,101787.59
2023-02-16T02:04:04.005Z,101792.88
2023-02-16T02:09:11.708Z,101792.63
2023-02-16T02:14:19.217Z,101779.25
2023-02-16T02:19:24.609Z,101788.63
2023-02-16T02:25:00.175Z,101782.41
2023-02-16T02:30:19.370Z,101786.19
2023-02-16T02:35:37.228Z,101787.56
2023-02-16T02:41:00.470Z,101780.47
2023-02-16T02:46:12.019Z,101781.28
2023-02-16T02:51:33.581Z,101780.09
2023-02-16T02:56:56.884Z,101768.22
2023-02-16T03:02:03.492Z,101766.53
2023-02-16T03:07:08.859Z,101754.69
2023-02-16T03:12:31.676Z,101745.16
2023-02-16T03:17:56.548Z,101766.44
2023-02-16T03:23:17.498Z,101752.75
2023-02-16T03:28:41.618Z,101755.63
2023-02-16T03:33:47.870Z,101754.53
2023-02-16T03:38:50.868Z,101756.53
2023-02-16T03:43:53.864Z,101753.25
2023-02-16T03:48:58.028Z,101744.78
2023-02-16T03:54:01.351Z,101751.47
2023-02-16T03:59:04.518Z,101732.56
2023-02-16T04:04:08.712Z,101734.19
2023-02-16T04:09:12.001Z,101723.31
2023-02-16T04:14:14.760Z,101721.25
2023-02-16T04:19:19.109Z,101719.47
2023-02-16T04:24:21.916Z,101723.81
2023-02-16T04:29:24.703Z,101720.91
2023-02-16T04:34:28.815Z,101726.88
2023-02-16T04:39:31.576Z,101728.84
2023-02-16T04:44:34.418Z,101717.19
2023-02-16T04:49:38.627Z,101726.94
2023-02-16T04:54:42.045Z,101722.53
2023-02-16T04:59:44.886Z,101713.94
2023-02-16T05:04:49.083Z,101710.75
2023-02-16T05:09:52.007Z,101722.09
2023-02-16T05:14:54.947Z,101717.84
2023-02-16T05:20:01.868Z,101713.03
2023-02-16T05:25:05.449Z,101716.03
2023-02-16T05:30:08.951Z,101718.59
2023-02-16T05:35:13.177Z,101716.75
2023-02-16T05:40:16.348Z,101720.00
2023-02-16T05:45:19.344Z,101729.72
2023-02-16T05:50:24.004Z,101734.31
2023-02-16T05:55:27.432Z,101729.75
2023-02-16T06:00:33.446Z,101719.38
2023-02-16T06:05:37.754Z,101715.78
2023-02-16T06:10:40.485Z,101709.31
2023-02-16T06:15:43.616Z,101713.88
2023-02-16T06:20:47.999Z,101715.28
2023-02-16T06:25:51.508Z,101704.78
2023-02-16T06:30:54.384Z,101711.31
2023-02-16T06:35:58.639Z,101710.03
2023-02-16T06:41:01.815Z,101738.53
2023-02-16T06:46:05.561Z,101739.06
2023-02-16T06:51:10.034Z,101727.81
2023-02-16T06:56:12.857Z,101721.88
2023-02-16T07:01:16.644Z,101717.84
2023-02-16T07:06:21.297Z,101710.88
2023-02-16T07:11:24.224Z,101695.34
2023-02-16T07:16:27.048Z,101692.59
2023-02-16T07:21:31.214Z,101692.84
2023-02-16T07:26:34.026Z,101708.78
2023-02-16T07:31:36.844Z,101716.34
2023-02-16T07:36:41.070Z,101717.72
2023-02-16T07:41:43.796Z,101710.97
2023-02-16T07:46:46.621Z,101703.16
2023-02-16T07:51:50.880Z,101702.00
2023-02-16T07:56:53.915Z,101716.47
2023-02-16T08:01:56.935Z,101712.31
2023-02-16T08:07:01.215Z,101717.13
2023-02-16T08:12:04.064Z,101704.41
2023-02-16T08:17:08.321Z,101696.28
2023-02-16T08:22:13.127Z,101695.09
2023-02-16T08:27:15.942Z,101689.63
2023-02-16T08:32:18.757Z,101695.31
2023-02-16T08:37:23.085Z,101701.44
2023-02-16T08:42:25.847Z,101687.19
2023-02-16T08:47:29.652Z,101697.13
2023-02-16T08:52:34.028Z,101687.34
2023-02-16T08:57:37.578Z,101684.09
2023-02-16T09:02:40.368Z,101675.97
2023-02-16T09:07:45.086Z,101696.38
2023-02-16T09:12:49.738Z,101684.56
2023-02-16T09:17:52.514Z,101691.25
2023-02-16T09:22:56.629Z,101693.41
2023-02-16T09:27:59.485Z,101703.19
2023-02-16T09:33:03.100Z,101711.47
2023-02-16T09:38:08.001Z,101709.22
2023-02-16T09:43:25.388Z,101720.81
2023-02-16T09:48:35.471Z,101717.53
2023-02-16T09:53:42.784Z,101728.97
2023-02-16T09:58:50.098Z,101723.88
2023-02-16T10:04:01.769Z,101725.06
2023-02-16T10:09:09.080Z,101730.16
2023-02-16T10:14:19.720Z,101715.88
2023-02-16T10:19:29.478Z,101730.91
2023-02-16T10:24:43.551Z,101736.78
2023-02-16T10:29:46.326Z,101726.88
2023-02-16T10:34:51.775Z,101730.25
2023-02-16T10:40:05.927Z,101721.19
2023-02-16T10:45:21.600Z,101733.84
2023-02-16T10:50:27.751Z,101729.50
2023-02-16T10:55:31.997Z,101731.41
2023-02-16T11:00:47.083Z,101721.41
2023-02-16T11:05:49.835Z,101720.38
2023-02-16T11:10:55.181Z,101735.59
2023-02-16T11:16:01.242Z,101721.69
2023-02-16T11:21:04.344Z,101717.69
2023-02-16T11:26:23.987Z,101716.81
2023-02-16T11:31:33.250Z,101713.81
2023-02-16T11:36:40.356Z,101721.19
2023-02-16T11:41:49.086Z,101713.00
2023-02-16T11:46:52.225Z,101710.47
2023-02-16T11:51:55.022Z,101713.75
2023-02-16T11:57:09.227Z,101723.88
2023-02-16T12:02:40.706Z,101703.16
2023-02-16T12:07:52.885Z,101697.34
2023-02-16T12:13:04.896Z,101700.44
2023-02-16T12:18:21.737Z,101696.06
2023-02-16T12:23:34.898Z,101704.13
2023-02-16T12:28:46.825Z,101689.03
2023-02-16T12:33:58.897Z,101689.28
2023-02-16T12:39:15.914Z,101687.34
2023-02-16T12:44:25.878Z,101701.22
2023-02-16T12:49:34.888Z,101678.78
2023-02-16T12:54:43.951Z,101671.94
2023-02-16T12:59:55.397Z,101665.81
2023-02-16T13:05:08.589Z,101655.50
2023-02-16T13:10:21.941Z,101659.09
2023-02-16T13:15:32.668Z,101658.53
2023-02-16T13:20:36.174Z,101658.31
2023-02-16T13:27:56.460Z,101644.19
2023-02-16T13:31:47.350Z,101629.06
2023-02-16T13:37:20.752Z,101617.88
2023-02-16T13:42:45.030Z,101625.34
2023-02-16T13:47:49.779Z,101632.66
2023-02-16T13:52:54.286Z,101621.56
2023-02-16T13:58:05.707Z,101621.22
2023-02-16T14:03:34.093Z,101620.63
2023-02-16T14:08:36.915Z,101620.06
2023-02-16T14:13:50.902Z,101613.25
2023-02-16T14:18:59.837Z,101597.63
2023-02-16T14:24:04.154Z,101601.00
2023-02-16T14:29:16.057Z,101596.59
2023-02-16T14:34:24.639Z,101595.28
2023-02-16T14:39:30.078Z,101585.88
2023-02-16T14:44:48.748Z,101590.13
2023-02-16T14:50:13.235Z,101588.94
2023-02-16T14:55:49.512Z,101581.66
2023-02-16T15:00:55.923Z,101583.94
2023-02-16T15:06:04.632Z,101579.00
2023-02-16T15:11:16.088Z,101591.41
2023-02-16T15:16:19.312Z,101580.47
2023-02-16T15:21:28.344Z,101592.53
2023-02-16T15:26:34.120Z,101599.88
2023-02-16T15:31:39.240Z,101600.59
2023-02-16T15:36:46.032Z,101597.03
2023-02-16T15:41:52.381Z,101603.69
2023-02-16T15:47:07.419Z,101595.09
2023-02-16T15:52:17.034Z,101598.09
2023-02-16T15:57:24.377Z,101597.22
2023-02-16T16:02:34.273Z,101585.09
2023-02-16T16:07:41.272Z,101590.50
2023-02-16T16:12:45.592Z,101584.75
2023-02-16T16:17:48.485Z,101589.41
2023-02-16T16:22:58.625Z,101594.16
2023-02-16T16:28:02.054Z,101578.91
2023-02-16T16:33:06.641Z,101579.41
2023-02-16T16:38:24.988Z,101579.06
2023-02-16T16:43:29.889Z,101585.78
2023-02-16T16:48:36.457Z,101574.25
2023-02-16T16:53:45.217Z,101573.19
2023-02-16T16:58:51.103Z,101569.50
2023-02-16T17:03:54.024Z,101561.28
2023-02-16T17:08:58.268Z,101555.59
2023-02-16T17:14:08.711Z,101555.63
2023-02-16T17:19:13.466Z,101557.84
2023-02-16T17:24:17.969Z,101565.09
2023-02-16T17:29:20.808Z,101566.97
2023-02-16T17:34:29.277Z,101555.19
2023-02-16T17:39:33.226Z,101550.88
2023-02-16T17:44:36.072Z,101544.84
2023-02-16T17:49:38.983Z,101549.31
2023-02-16T17:54:43.139Z,101562.88
2023-02-16T17:59:45.968Z,101554.00
2023-02-16T18:04:48.907Z,101566.25
2023-02-16T18:09:53.035Z,101550.72
2023-02-16T18:14:55.879Z,101551.75
2023-02-16T18:19:58.673Z,101569.75
2023-02-16T18:25:02.805Z,101572.47
2023-02-16T18:30:06.933Z,101570.66
2023-02-16T18:35:10.703Z,101566.06
2023-02-16T18:40:19.498Z,101569.59
2023-02-16T18:45:22.311Z,101567.78
2023-02-16T18:50:25.112Z,101571.97
2023-02-16T18:55:32.893Z,101558.03
2023-02-16T19:00:36.151Z,101546.88
2023-02-16T19:05:38.999Z,101544.94
2023-02-16T19:10:43.193Z,101535.22
2023-02-16T19:15:46.290Z,101539.50
2023-02-16T19:20:49.153Z,101526.81
2023-02-16T19:25:53.269Z,101527.97
2023-02-16T19:31:00.510Z,101523.63
2023-02-16T19:36:05.605Z,101524.38
2023-02-16T19:41:12.668Z,101524.50
2023-02-16T19:46:16.122Z,101513.38
2023-02-16T19:51:19.057Z,101503.94
2023-02-16T19:56:34.194Z,101495.25
2023-02-16T20:01:40.646Z,101481.31
2023-02-16T20:06:44.884Z,101484.94
2023-02-16T20:11:54.063Z,101484.97
2023-02-16T20:17:07.853Z,101480.28
2023-02-16T20:22:12.571Z,101469.50
2023-02-16T20:27:20.479Z,101456.19
2023-02-16T20:32:26.042Z,101451.66
2023-02-16T20:37:30.770Z,101436.72
2023-02-16T20:42:36.298Z,101429.44
2023-02-16T20:47:40.541Z,101422.72
2023-02-16T20:52:44.749Z,101409.72
2023-02-16T20:57:50.070Z,101405.59
2023-02-16T21:02:55.689Z,101388.00
2023-02-16T21:08:00.015Z,101380.41
2023-02-16T21:13:04.410Z,101370.91
2023-02-16T21:18:07.329Z,101371.09
2023-02-16T21:23:10.284Z,101371.31
2023-02-16T21:28:14.702Z,101370.84
2023-02-16T21:33:17.867Z,101365.75
2023-02-16T21:38:20.663Z,101358.34
2023-02-16T21:43:24.861Z,101341.69
2023-02-16T21:48:45.041Z,101341.69
2023-02-16T21:53:48.843Z,101326.31
2023-02-16T21:58:53.053Z,101316.50
2023-02-16T22:03:58.665Z,101316.00
2023-02-16T22:09:02.050Z,101306.91
2023-02-16T22:14:06.415Z,101306.94
2023-02-16T22:19:12.903Z,101307.84
2023-02-16T22:24:18.425Z,101302.28
2023-02-16T22:29:22.601Z,101298.72
2023-02-16T22:34:26.468Z,101289.88
2023-02-16T22:39:31.354Z,101280.81
2023-02-16T22:44:35.850Z,101271.16
2023-02-16T22:49:38.686Z,101261.31
2023-02-16T22:54:42.037Z,101248.94
2023-02-16T22:59:55.119Z,101249.19
2023-02-16T23:04:58.707Z,101250.84
2023-02-16T23:10:01.921Z,101252.16
2023-02-16T23:15:06.625Z,101243.56
2023-02-16T23:20:11.018Z,101234.66
2023-02-16T23:25:31.148Z,101225.91
2023-02-16T23:30:43.279Z,101222.34
2023-02-16T23:35:48.022Z,101211.66
2023-02-16T23:40:57.048Z,101215.88
2023-02-16T23:46:05.411Z,101212.91
2023-02-16T23:51:10.039Z,101207.38
2023-02-16T23:56:18.718Z,101202.09
